createdAt,value
2024-05-09T00:00:40.865Z,94
2024-05-09T00:01:47.174Z,95
2024-05-09T00:02:53.198Z,95
2024-05-09T00:04:00.236Z,95
2024-05-09T00:05:07.482Z,95
2024-05-09T00:06:14.052Z,95
2024-05-09T00:07:20.999Z,95
2024-05-09T00:08:28.177Z,96
2024-05-09T00:09:35.271Z,96
2024-05-09T00:10:42.398Z,96
2024-05-09T00:11:49.565Z,96
2024-05-09T00:12:56.141Z,97
2024-05-09T00:14:03.166Z,97
2024-05-09T00:15:10.270Z,97
2024-05-09T00:16:17.325Z,98
2024-05-09T00:17:24.651Z,98
2024-05-09T00:18:31.430Z,98
2024-05-09T00:19:38.181Z,97
2024-05-09T00:20:45.309Z,98
2024-05-09T00:21:52.423Z,97
2024-05-09T00:22:59.537Z,98
2024-05-09T00:24:06.073Z,99
2024-05-09T00:25:13.173Z,98
2024-05-09T00:26:20.452Z,99
2024-05-09T00:27:27.404Z,98
2024-05-09T00:28:34.511Z,99
2024-05-09T00:29:41.151Z,99
2024-05-09T00:30:48.185Z,99
2024-05-09T00:31:55.349Z,99
2024-05-09T00:33:02.607Z,99
2024-05-09T00:34:09.891Z,99
2024-05-09T00:35:16.173Z,99
2024-05-09T00:36:23.215Z,99
2024-05-09T00:37:30.284Z,99
2024-05-09T00:38:37.477Z,99
2024-05-09T00:39:44.480Z,99
2024-05-09T00:40:51.172Z,99
2024-05-09T00:41:58.155Z,99
2024-05-09T00:43:05.263Z,99
2024-05-09T00:44:12.466Z,99
2024-05-09T00:45:18.997Z,99
2024-05-09T00:47:33.498Z,99
2024-05-09T00:48:40.542Z,99
2024-05-09T00:49:47.487Z,99
2024-05-09T00:50:54.035Z,99
2024-05-09T00:52:01.146Z,99
2024-05-09T00:53:08.303Z,99
2024-05-09T00:54:15.360Z,99
2024-05-09T00:55:22.439Z,99
2024-05-09T00:56:28.981Z,99
2024-05-09T00:57:36.105Z,99
2024-05-09T00:58:43.348Z,99
2024-05-09T00:59:50.376Z,99
2024-05-09T01:00:57.433Z,99
2024-05-09T01:02:04.091Z,99
2024-05-09T01:04:18.295Z,99
2024-05-09T01:05:25.883Z,99
2024-05-09T01:06:32.522Z,99
2024-05-09T01:07:39.080Z,99
2024-05-09T01:08:46.088Z,99
2024-05-09T01:09:53.288Z,99
2024-05-09T01:11:00.505Z,99
2024-05-09T01:12:07.595Z,99
2024-05-09T01:13:14.111Z,99
2024-05-09T01:14:21.288Z,99
2024-05-09T01:15:28.245Z,99
2024-05-09T01:16:35.388Z,99
2024-05-09T01:17:42.683Z,99
2024-05-09T01:18:49.209Z,99
2024-05-09T01:19:56.176Z,99
2024-05-09T01:21:03.300Z,99
2024-05-09T01:22:10.361Z,99
2024-05-09T01:23:17.512Z,99
2024-05-09T01:24:24.064Z,99
2024-05-09T01:25:31.191Z,99
2024-05-09T01:26:38.288Z,99
2024-05-09T01:27:45.398Z,99
2024-05-09T01:28:52.543Z,99
2024-05-09T01:29:59.045Z,99
2024-05-09T01:31:06.116Z,99
2024-05-09T01:32:13.529Z,99
2024-05-09T01:33:20.689Z,99
2024-05-09T01:34:27.435Z,100
2024-05-09T01:35:34.203Z,100
2024-05-09T01:36:41.226Z,100
2024-05-09T01:37:48.320Z,100
2024-05-09T01:38:55.461Z,100
2024-05-09T01:40:02.807Z,100
2024-05-09T01:41:09.121Z,100
2024-05-09T01:42:16.138Z,100
2024-05-09T01:43:23.282Z,100
2024-05-09T01:44:30.498Z,100
2024-05-09T01:45:37.460Z,100
2024-05-09T01:46:44.180Z,100
2024-05-09T01:47:51.444Z,100
2024-05-09T01:48:58.495Z,100
2024-05-09T01:51:12.155Z,100
2024-05-09T01:52:19.092Z,100
2024-05-09T01:53:26.216Z,100
2024-05-09T01:54:33.329Z,100
2024-05-09T01:55:40.401Z,100
2024-05-09T01:56:46.998Z,100
2024-05-09T01:57:54.128Z,100
2024-05-09T01:59:01.311Z,100
2024-05-09T02:00:10.252Z,100
2024-05-09T02:01:15.472Z,100
2024-05-09T02:02:22.054Z,100
2024-05-09T02:03:29.263Z,100
2024-05-09T02:04:36.316Z,100
2024-05-09T02:05:43.461Z,100
2024-05-09T02:06:50.428Z,100
2024-05-09T02:07:57.064Z,100
2024-05-09T02:09:04.646Z,100
2024-05-09T02:11:18.399Z,100
2024-05-09T02:12:25.635Z,100
2024-05-09T02:13:32.075Z,100
2024-05-09T02:14:39.151Z,100
2024-05-09T02:15:46.210Z,100
2024-05-09T02:16:54.015Z,100
2024-05-09T02:18:00.866Z,100
2024-05-09T02:19:07.146Z,100
2024-05-09T02:20:22.546Z,100
2024-05-09T02:21:21.288Z,100
2024-05-09T02:22:28.339Z,100
2024-05-09T02:23:35.458Z,100
2024-05-09T02:24:42.005Z,100
2024-05-09T02:25:49.193Z,100
2024-05-09T02:26:56.301Z,100
2024-05-09T02:28:03.388Z,100
2024-05-09T02:29:10.563Z,100
2024-05-09T02:30:25.834Z,100
2024-05-09T02:32:31.442Z,100
2024-05-09T02:33:38.618Z,100
2024-05-09T02:34:45.522Z,100
2024-05-09T02:35:52.068Z,100
2024-05-09T02:36:59.147Z,100
2024-05-09T02:38:06.404Z,100
2024-05-09T02:39:13.469Z,100
2024-05-09T02:40:28.339Z,100
2024-05-09T02:41:27.214Z,100
2024-05-09T02:42:34.167Z,100
2024-05-09T02:43:41.332Z,100
2024-05-09T02:44:48.380Z,100
2024-05-09T02:45:55.444Z,100
2024-05-09T02:47:02.117Z,100
2024-05-09T02:48:09.292Z,100
2024-05-09T02:49:16.322Z,100
2024-05-09T02:50:30.259Z,100
2024-05-09T02:51:30.522Z,100
2024-05-09T02:52:37.020Z,100
2024-05-09T02:54:51.323Z,100
2024-05-09T02:55:58.398Z,100
2024-05-09T02:57:05.442Z,100
2024-05-09T02:58:12.174Z,100
2024-05-09T02:59:19.372Z,100
2024-05-09T03:00:34.725Z,100
2024-05-09T03:01:33.458Z,100
2024-05-09T03:02:40.623Z,100
2024-05-09T03:03:47.306Z,100
2024-05-09T03:04:54.409Z,100
2024-05-09T03:06:01.295Z,100
2024-05-09T03:07:11.845Z,100
2024-05-09T03:08:15.566Z,100
2024-05-09T03:09:22.096Z,100
2024-05-09T03:10:35.317Z,100
2024-05-09T03:11:36.397Z,100
2024-05-09T03:12:44.091Z,100
2024-05-09T03:13:50.567Z,100
2024-05-09T03:14:57.042Z,100
2024-05-09T03:16:04.201Z,100
2024-05-09T03:17:11.374Z,100
2024-05-09T03:18:18.556Z,100
2024-05-09T03:19:25.108Z,100
2024-05-09T03:20:34.961Z,100
2024-05-09T03:21:39.194Z,100
2024-05-09T03:22:46.345Z,100
2024-05-09T03:23:53.541Z,100
2024-05-09T03:25:00.028Z,100
2024-05-09T03:26:07.210Z,100
2024-05-09T03:27:14.262Z,100
2024-05-09T03:28:21.356Z,100
2024-05-09T03:29:28.561Z,100
2024-05-09T03:30:40.249Z,100
2024-05-09T03:31:42.188Z,100
2024-05-09T03:32:49.478Z,100
2024-05-09T03:33:56.521Z,100
2024-05-09T03:35:03.510Z,100
2024-05-09T03:36:11.285Z,100
2024-05-09T03:37:17.195Z,100
2024-05-09T03:38:24.308Z,100
2024-05-09T03:39:31.356Z,100
2024-05-09T03:40:38.501Z,100
2024-05-09T03:41:45.464Z,100
2024-05-09T03:42:52.146Z,100
2024-05-09T03:43:59.266Z,100
2024-05-09T03:45:06.366Z,100
2024-05-09T03:46:13.489Z,100
2024-05-09T03:47:20.281Z,100
2024-05-09T03:48:27.324Z,100
2024-05-09T03:49:34.498Z,100
2024-05-09T03:50:41.583Z,100
2024-05-09T03:51:48.514Z,100
2024-05-09T03:52:55.068Z,100
2024-05-09T03:54:02.192Z,100
2024-05-09T03:55:09.260Z,100
2024-05-09T03:56:16.393Z,100
2024-05-09T03:58:30.114Z,100
2024-05-09T04:00:44.390Z,100
2024-05-09T04:01:51.543Z,100
2024-05-09T04:02:58.648Z,100
2024-05-09T04:04:05.065Z,100
2024-05-09T04:05:12.468Z,100
2024-05-09T04:06:19.237Z,100
2024-05-09T04:07:26.329Z,100
2024-05-09T04:08:33.613Z,100
2024-05-09T04:09:40.104Z,100
2024-05-09T04:10:47.167Z,100
2024-05-09T04:11:55.180Z,100
2024-05-09T04:13:01.494Z,100
2024-05-09T04:14:08.768Z,100
2024-05-09T04:15:15.026Z,100
2024-05-09T04:16:22.738Z,100
2024-05-09T04:17:29.497Z,100
2024-05-09T04:18:36.454Z,100
2024-05-09T04:19:43.491Z,100
2024-05-09T04:20:50.163Z,100
2024-05-09T04:21:57.186Z,100
2024-05-09T04:23:04.396Z,100
2024-05-09T04:24:11.414Z,100
2024-05-09T04:25:18.491Z,100
2024-05-09T04:26:25.142Z,100
2024-05-09T04:27:32.248Z,100
2024-05-09T04:28:39.318Z,100
2024-05-09T04:29:46.430Z,100
2024-05-09T04:30:53.548Z,100
2024-05-09T04:32:00.296Z,100
2024-05-09T04:33:08.821Z,100
2024-05-09T04:34:14.636Z,100
2024-05-09T04:35:21.582Z,100
2024-05-09T04:36:28.473Z,100
2024-05-09T04:37:35.102Z,100
2024-05-09T04:38:42.226Z,100
2024-05-09T04:39:49.324Z,100
2024-05-09T04:40:56.488Z,100
2024-05-09T04:42:03.065Z,100
2024-05-09T04:43:10.156Z,100
2024-05-09T04:44:17.272Z,100
2024-05-09T04:45:24.366Z,100
2024-05-09T04:46:31.472Z,100
2024-05-09T04:47:38.245Z,100
2024-05-09T04:48:45.209Z,100
2024-05-09T04:49:52.280Z,100
2024-05-09T04:50:59.421Z,100
2024-05-09T04:52:06.459Z,100
2024-05-09T04:53:13.079Z,100
2024-05-09T04:55:27.274Z,100
2024-05-09T04:56:34.412Z,100
2024-05-09T04:57:41.437Z,100
2024-05-09T04:58:48.071Z,100
2024-05-09T04:59:55.102Z,100
2024-05-09T05:02:09.450Z,100
2024-05-09T05:03:16.983Z,100
2024-05-09T05:04:23.170Z,100
2024-05-09T05:05:30.155Z,100
2024-05-09T05:06:37.202Z,100
2024-05-09T05:07:44.510Z,100
2024-05-09T05:08:51.445Z,100
2024-05-09T05:09:57.997Z,100
2024-05-09T05:11:05.265Z,100
2024-05-09T05:12:12.522Z,100
2024-05-09T05:13:20.857Z,100
2024-05-09T05:14:26.573Z,100
2024-05-09T05:15:33.052Z,100
2024-05-09T05:16:40.311Z,100
2024-05-09T05:17:47.618Z,100
2024-05-09T05:18:54.523Z,100
2024-05-09T05:20:01.646Z,100
2024-05-09T05:21:08.054Z,100
2024-05-09T05:22:15.140Z,100
2024-05-09T05:23:22.434Z,100
2024-05-09T05:24:29.389Z,100
2024-05-09T05:25:36.454Z,100
2024-05-09T05:26:43.122Z,100
2024-05-09T05:28:57.358Z,100
2024-05-09T05:30:07.369Z,100
2024-05-09T05:31:11.538Z,100
2024-05-09T05:32:18.277Z,100
2024-05-09T05:33:25.271Z,100
2024-05-09T05:34:32.304Z,100
2024-05-09T05:35:39.415Z,100
2024-05-09T05:36:46.447Z,100
2024-05-09T05:37:53.144Z,100
2024-05-09T05:39:00.190Z,100
2024-05-09T05:40:09.395Z,100
2024-05-09T05:41:14.413Z,100
2024-05-09T05:42:21.478Z,100
2024-05-09T05:43:28.112Z,100
2024-05-09T05:44:35.180Z,100
2024-05-09T05:45:42.340Z,100
2024-05-09T05:46:49.382Z,100
2024-05-09T05:47:56.859Z,100
2024-05-09T05:49:03.247Z,100
2024-05-09T05:50:20.429Z,100
2024-05-09T05:51:17.543Z,100
2024-05-09T05:52:24.420Z,100
2024-05-09T05:53:31.160Z,100
2024-05-09T05:54:38.131Z,100
2024-05-09T05:55:45.353Z,100
2024-05-09T05:56:54.292Z,100
2024-05-09T05:57:59.396Z,100
2024-05-09T05:59:06.060Z,100
2024-05-09T06:01:20.296Z,100
2024-05-09T06:02:27.381Z,100
2024-05-09T06:03:34.522Z,100
2024-05-09T06:05:48.246Z,100
2024-05-09T06:06:55.206Z,100
2024-05-09T06:08:02.370Z,100
2024-05-09T06:09:09.437Z,100
2024-05-09T06:10:21.476Z,100
2024-05-09T06:11:23.305Z,100
2024-05-09T06:12:30.303Z,100
2024-05-09T06:13:37.353Z,100
2024-05-09T06:14:44.502Z,100
2024-05-09T06:15:51.048Z,100
2024-05-09T06:16:58.418Z,100
2024-05-09T06:18:05.653Z,100
2024-05-09T06:19:12.453Z,100
2024-05-09T06:20:24.062Z,100
2024-05-09T06:21:26.087Z,100
2024-05-09T06:22:33.163Z,100
2024-05-09T06:23:40.908Z,100
2024-05-09T06:24:47.337Z,100
2024-05-09T06:25:54.556Z,100
2024-05-09T06:27:01.068Z,100
2024-05-09T06:28:08.133Z,100
2024-05-09T06:29:15.342Z,100
2024-05-09T06:30:30.029Z,100
2024-05-09T06:31:29.420Z,100
2024-05-09T06:32:36.153Z,101
2024-05-09T06:33:43.328Z,101
2024-05-09T06:34:50.369Z,101
2024-05-09T06:35:57.329Z,101
2024-05-09T06:37:04.483Z,101
2024-05-09T06:38:11.775Z,101
2024-05-09T06:39:18.196Z,101
2024-05-09T06:40:29.871Z,101
2024-05-09T06:41:32.452Z,101
2024-05-09T06:42:39.504Z,101
2024-05-09T06:43:46.115Z,101
2024-05-09T06:44:53.168Z,101
2024-05-09T06:46:00.347Z,101
2024-05-09T06:47:07.558Z,101
2024-05-09T06:48:14.838Z,101
2024-05-09T06:49:21.334Z,101
2024-05-09T06:50:35.256Z,101
2024-05-09T06:51:35.328Z,101
2024-05-09T06:52:42.440Z,101
2024-05-09T06:53:49.543Z,101
2024-05-09T06:54:56.088Z,101
2024-05-09T06:57:10.336Z,101
2024-05-09T06:58:17.399Z,101
2024-05-09T06:59:24.586Z,101
2024-05-09T07:00:38.528Z,101
2024-05-09T07:01:38.179Z,101
2024-05-09T07:02:45.537Z,101
2024-05-09T07:03:52.611Z,101
2024-05-09T07:04:59.587Z,101
2024-05-09T07:06:08.026Z,101
2024-05-09T07:07:13.254Z,101
2024-05-09T07:09:27.450Z,101
2024-05-09T07:10:35.921Z,101
2024-05-09T07:11:41.329Z,101
2024-05-09T07:12:48.192Z,101
2024-05-09T07:13:55.564Z,101
2024-05-09T07:15:02.478Z,101
2024-05-09T07:16:09.650Z,101
2024-05-09T07:17:16.184Z,101
2024-05-09T07:18:23.496Z,101
2024-05-09T07:19:30.450Z,101
2024-05-09T07:20:37.673Z,101
2024-05-09T07:21:44.553Z,101
2024-05-09T07:22:51.172Z,101
2024-05-09T07:23:58.278Z,101
2024-05-09T07:25:05.297Z,101
2024-05-09T07:26:12.567Z,101
2024-05-09T07:27:19.560Z,101
2024-05-09T07:28:26.086Z,101
2024-05-09T07:29:36.285Z,101
2024-05-09T07:30:40.364Z,101
2024-05-09T07:31:47.471Z,101
2024-05-09T07:32:54.233Z,101
2024-05-09T07:34:01.231Z,101
2024-05-09T07:35:08.257Z,101
2024-05-09T07:36:15.438Z,101
2024-05-09T07:37:22.507Z,101
2024-05-09T07:38:29.137Z,101
2024-05-09T07:39:36.165Z,101
2024-05-09T07:40:43.416Z,101
2024-05-09T07:41:50.341Z,101
2024-05-09T07:42:57.426Z,101
2024-05-09T07:44:04.247Z,101
2024-05-09T07:45:29.767Z,101
2024-05-09T07:47:14.399Z,101
2024-05-09T07:48:56.895Z,101
2024-05-09T07:53:21.174Z,101
2024-05-09T07:53:36.009Z,101
2024-05-09T07:54:07.913Z,101
2024-05-09T07:55:14.188Z,101
2024-05-09T07:56:23.078Z,101
2024-05-09T07:57:28.261Z,101
2024-05-09T07:58:35.396Z,101
2024-05-09T07:59:42.442Z,101
2024-05-09T08:00:49.206Z,101
2024-05-09T08:01:56.271Z,101
2024-05-09T08:03:03.391Z,101
2024-05-09T08:04:10.576Z,101
2024-05-09T08:05:17.636Z,101
2024-05-09T08:06:24.133Z,101
2024-05-09T08:07:31.210Z,101
2024-05-09T08:08:38.295Z,101
2024-05-09T08:09:45.544Z,101
2024-05-09T08:10:52.713Z,101
2024-05-09T08:11:59.185Z,101
2024-05-09T08:13:06.247Z,101
2024-05-09T08:14:13.286Z,101
2024-05-09T08:15:20.430Z,101
2024-05-09T08:16:27.666Z,101
2024-05-09T08:17:34.247Z,101
2024-05-09T08:18:41.343Z,101
2024-05-09T08:19:48.354Z,101
2024-05-09T08:20:55.418Z,101
2024-05-09T08:22:02.596Z,101
2024-05-09T08:23:09.103Z,101
2024-05-09T08:25:23.403Z,101
2024-05-09T08:26:30.439Z,101
2024-05-09T08:27:37.566Z,101
2024-05-09T08:28:44.135Z,101
2024-05-09T08:29:51.228Z,101
2024-05-09T08:32:05.559Z,101
2024-05-09T08:33:12.629Z,101
2024-05-09T08:34:19.261Z,101
2024-05-09T08:35:26.356Z,101
2024-05-09T08:36:33.417Z,101
2024-05-09T08:37:40.869Z,101
2024-05-09T08:38:47.550Z,101
2024-05-09T08:39:54.166Z,101
2024-05-09T08:41:01.252Z,101
2024-05-09T08:42:08.331Z,101
2024-05-09T08:43:15.594Z,101
2024-05-09T08:44:22.014Z,101
2024-05-09T08:45:29.179Z,101
2024-05-09T08:46:36.291Z,101
2024-05-09T08:47:43.469Z,101
2024-05-09T08:48:50.613Z,101
2024-05-09T08:49:57.037Z,101
2024-05-09T08:51:04.148Z,101
2024-05-09T08:52:11.384Z,101
2024-05-09T08:53:18.364Z,101
2024-05-09T08:54:25.442Z,101
2024-05-09T08:55:32.085Z,101
2024-05-09T08:56:39.111Z,101
2024-05-09T08:57:46.316Z,101
2024-05-09T08:58:53.340Z,101
2024-05-09T09:00:00.662Z,101
2024-05-09T09:01:07.190Z,101
2024-05-09T09:02:14.344Z,101
2024-05-09T09:03:21.292Z,101
2024-05-09T09:04:28.504Z,101
2024-05-09T09:05:35.799Z,101
2024-05-09T09:06:42.133Z,101
2024-05-09T09:07:49.150Z,101
2024-05-09T09:08:56.249Z,101
2024-05-09T09:10:05.513Z,101
2024-05-09T09:11:10.602Z,101
2024-05-09T09:12:17.024Z,101
2024-05-09T09:13:24.253Z,101
2024-05-09T09:14:31.274Z,101
2024-05-09T09:15:38.379Z,101
2024-05-09T09:16:45.528Z,101
2024-05-09T09:17:52.296Z,101
2024-05-09T09:18:59.353Z,101
2024-05-09T09:20:11.291Z,101
2024-05-09T09:21:13.377Z,101
2024-05-09T09:22:20.536Z,101
2024-05-09T09:23:27.076Z,101
2024-05-09T09:24:34.262Z,101
2024-05-09T09:25:41.379Z,101
2024-05-09T09:26:48.427Z,101
2024-05-09T09:27:55.646Z,101
2024-05-09T09:29:02.134Z,101
2024-05-09T09:30:22.849Z,101
2024-05-09T09:31:16.331Z,101
2024-05-09T09:32:23.465Z,101
2024-05-09T09:33:30.731Z,101
2024-05-09T09:35:44.467Z,101
2024-05-09T09:36:54.292Z,101
2024-05-09T09:37:58.481Z,101
2024-05-09T09:39:05.520Z,101
2024-05-09T09:41:19.213Z,101
2024-05-09T09:42:26.296Z,101
2024-05-09T09:43:33.438Z,101
2024-05-09T09:44:42.282Z,101
2024-05-09T09:45:47.135Z,101
2024-05-09T09:46:54.343Z,101
2024-05-09T09:48:01.476Z,101
2024-05-09T09:49:08.544Z,101
2024-05-09T09:50:20.450Z,101
2024-05-09T09:51:22.152Z,101
2024-05-09T09:53:36.360Z,101
2024-05-09T09:54:43.515Z,101
2024-05-09T09:55:50.609Z,101
2024-05-09T09:56:57.083Z,100
2024-05-09T09:58:04.427Z,100
2024-05-09T09:59:11.400Z,100
2024-05-09T10:00:24.487Z,100
2024-05-09T10:01:25.659Z,101
2024-05-09T10:02:32.412Z,100
2024-05-09T10:03:39.577Z,100
2024-05-09T10:04:46.416Z,100
2024-05-09T10:05:53.541Z,100
2024-05-09T10:07:00.141Z,100
2024-05-09T10:08:07.091Z,100
2024-05-09T10:09:14.309Z,100
2024-05-09T10:10:27.411Z,100
2024-05-09T10:11:28.464Z,100
2024-05-09T10:12:35.109Z,100
2024-05-09T10:13:42.307Z,100
2024-05-09T10:14:49.320Z,100
2024-05-09T10:15:56.373Z,100
2024-05-09T10:17:03.500Z,100
2024-05-09T10:18:10.328Z,100
2024-05-09T10:19:17.235Z,100
2024-05-09T10:20:28.093Z,100
2024-05-09T10:21:31.415Z,100
2024-05-09T10:22:38.458Z,100
2024-05-09T10:23:45.061Z,100
2024-05-09T10:24:52.247Z,100
2024-05-09T10:25:59.575Z,100
2024-05-09T10:27:06.407Z,100
2024-05-09T10:28:13.662Z,100
2024-05-09T10:29:21.119Z,100
2024-05-09T10:30:34.010Z,100
2024-05-09T10:31:34.357Z,100
2024-05-09T10:32:41.640Z,100
2024-05-09T10:33:49.088Z,100
2024-05-09T10:34:55.277Z,100
2024-05-09T10:36:02.237Z,100
2024-05-09T10:37:09.349Z,100
2024-05-09T10:39:23.558Z,100
2024-05-09T10:40:31.929Z,100
2024-05-09T10:41:37.161Z,100
2024-05-09T10:42:44.347Z,100
2024-05-09T10:43:51.618Z,100
2024-05-09T10:44:58.502Z,100
2024-05-09T10:46:05.316Z,100
2024-05-09T10:47:12.226Z,100
2024-05-09T10:48:19.460Z,100
2024-05-09T10:49:26.613Z,100
2024-05-09T10:50:34.564Z,100
2024-05-09T10:51:40.193Z,100
2024-05-09T10:52:47.158Z,100
2024-05-09T10:53:54.336Z,100
2024-05-09T10:55:03.825Z,100
2024-05-09T10:56:08.539Z,100
2024-05-09T10:57:15.112Z,100
2024-05-09T10:58:22.248Z,100
2024-05-09T10:59:29.330Z,100
2024-05-09T11:00:36.867Z,100
2024-05-09T11:01:43.749Z,100
2024-05-09T11:02:50.305Z,100
2024-05-09T11:03:57.341Z,100
2024-05-09T11:05:04.405Z,100
2024-05-09T11:06:11.583Z,100
2024-05-09T11:07:18.661Z,100
2024-05-09T11:08:25.148Z,100
2024-05-09T11:09:32.265Z,100
2024-05-09T11:10:39.401Z,100
2024-05-09T11:11:46.496Z,100
2024-05-09T11:12:53.155Z,100
2024-05-09T11:14:00.162Z,100
2024-05-09T11:15:07.239Z,100
2024-05-09T11:16:14.425Z,100
2024-05-09T11:17:21.559Z,100
2024-05-09T11:18:30.665Z,100
2024-05-09T11:19:35.141Z,100
2024-05-09T11:20:42.413Z,100
2024-05-09T11:21:49.390Z,100
2024-05-09T11:22:56.456Z,100
2024-05-09T11:24:03.056Z,100
2024-05-09T11:25:10.251Z,100
2024-05-09T11:26:17.249Z,100
2024-05-09T11:27:24.374Z,100
2024-05-09T11:28:31.501Z,100
2024-05-09T11:29:38.051Z,100
2024-05-09T11:30:45.152Z,100
2024-05-09T11:31:52.330Z,100
2024-05-09T11:32:59.731Z,100
2024-05-09T11:34:06.467Z,100
2024-05-09T11:35:13.070Z,100
2024-05-09T11:36:20.145Z,100
2024-05-09T11:37:27.365Z,100
2024-05-09T11:38:34.456Z,100
2024-05-09T11:39:41.514Z,100
2024-05-09T11:40:48.078Z,100
2024-05-09T11:43:02.324Z,100
2024-05-09T11:44:09.389Z,100
2024-05-09T11:45:16.564Z,100
2024-05-09T11:46:23.308Z,100
2024-05-09T11:47:30.279Z,100
2024-05-09T11:48:37.452Z,100
2024-05-09T11:49:44.528Z,100
2024-05-09T11:50:51.514Z,100
2024-05-09T11:51:58.130Z,100
2024-05-09T11:53:05.187Z,100
2024-05-09T11:54:12.289Z,100
2024-05-09T11:55:19.495Z,100
2024-05-09T11:56:26.520Z,100
2024-05-09T11:57:34.169Z,100
2024-05-09T11:58:40.219Z,100
2024-05-09T11:59:47.291Z,100
2024-05-09T12:00:54.592Z,100
2024-05-09T12:02:01.648Z,100
2024-05-09T12:03:08.167Z,100
2024-05-09T12:04:15.437Z,100
2024-05-09T12:05:22.514Z,100
2024-05-09T12:06:29.530Z,100
2024-05-09T12:07:36.488Z,100
2024-05-09T12:08:43.140Z,100
2024-05-09T12:09:50.376Z,100
2024-05-09T12:10:57.500Z,100
2024-05-09T12:12:04.411Z,100
2024-05-09T12:13:11.616Z,100
2024-05-09T12:14:18.096Z,100
2024-05-09T12:15:25.231Z,100
2024-05-09T12:16:32.647Z,100
2024-05-09T12:17:39.492Z,100
2024-05-09T12:18:46.590Z,100
2024-05-09T12:19:53.165Z,100
2024-05-09T12:21:00.290Z,100
2024-05-09T12:22:07.401Z,100
2024-05-09T12:23:14.430Z,100
2024-05-09T12:24:21.564Z,100
2024-05-09T12:25:28.119Z,100
2024-05-09T12:26:35.247Z,100
2024-05-09T12:27:42.470Z,100
2024-05-09T12:28:49.407Z,100
2024-05-09T12:29:56.542Z,100
2024-05-09T12:31:03.191Z,100
2024-05-09T12:32:10.245Z,100
2024-05-09T12:33:17.439Z,100
2024-05-09T12:34:24.511Z,100
2024-05-09T12:35:31.016Z,100
2024-05-09T12:36:38.160Z,100
2024-05-09T12:37:45.346Z,100
2024-05-09T12:38:52.402Z,100
2024-05-09T12:39:59.507Z,100
2024-05-09T12:41:06.051Z,100
2024-05-09T12:42:25.873Z,100
2024-05-09T12:43:20.310Z,100
2024-05-09T12:44:27.406Z,100
2024-05-09T12:46:41.056Z,100
2024-05-09T12:47:48.269Z,100
2024-05-09T12:50:03.798Z,100
2024-05-09T12:51:09.523Z,100
2024-05-09T12:52:16.051Z,100
2024-05-09T12:53:23.158Z,100
2024-05-09T12:54:30.272Z,100
2024-05-09T12:55:44.510Z,100
2024-05-09T12:56:44.462Z,100
2024-05-09T12:57:51.261Z,100
2024-05-09T12:58:58.189Z,100
2024-05-09T13:00:05.822Z,100
2024-05-09T13:01:12.487Z,100
2024-05-09T13:02:19.718Z,100
2024-05-09T13:03:26.167Z,100
2024-05-09T13:04:33.407Z,100
2024-05-09T13:05:40.445Z,100
2024-05-09T13:06:47.468Z,100
2024-05-09T13:07:54.462Z,100
2024-05-09T13:09:01.110Z,100
2024-05-09T13:10:13.802Z,100
2024-05-09T13:11:15.456Z,100
2024-05-09T13:12:24.377Z,100
2024-05-09T13:13:29.519Z,100
2024-05-09T13:14:36.098Z,100
2024-05-09T13:15:43.291Z,100
2024-05-09T13:16:50.390Z,100
2024-05-09T13:18:00.495Z,100
2024-05-09T13:19:04.533Z,100
2024-05-09T13:20:18.912Z,100
2024-05-09T13:21:18.210Z,100
2024-05-09T13:22:25.277Z,100
2024-05-09T13:23:32.438Z,100
2024-05-09T13:24:39.609Z,100
2024-05-09T13:25:46.581Z,100
2024-05-09T13:26:54.316Z,100
2024-05-09T13:28:00.450Z,100
2024-05-09T13:29:07.412Z,100
2024-05-09T13:30:17.972Z,100
2024-05-09T13:31:21.146Z,100
2024-05-09T13:32:28.334Z,100
2024-05-09T13:33:35.378Z,100
2024-05-09T13:34:42.489Z,100
2024-05-09T13:35:51.015Z,100
2024-05-09T13:36:56.200Z,100
2024-05-09T13:38:03.702Z,100
2024-05-09T13:39:10.334Z,100
2024-05-09T13:41:24.542Z,100
2024-05-09T13:42:31.198Z,100
2024-05-09T13:43:38.345Z,100
2024-05-09T13:44:45.357Z,100
2024-05-09T13:46:59.043Z,100
2024-05-09T13:48:06.213Z,100
2024-05-09T13:50:28.235Z,100
2024-05-09T13:51:27.412Z,100
2024-05-09T13:52:34.143Z,100
2024-05-09T13:53:41.166Z,100
2024-05-09T13:54:48.265Z,100
2024-05-09T13:55:55.477Z,100
2024-05-09T13:57:02.459Z,100
2024-05-09T13:58:09.679Z,100
2024-05-09T13:59:16.178Z,100
2024-05-09T14:00:37.672Z,100
2024-05-09T14:01:30.504Z,100
2024-05-09T14:02:37.542Z,100
2024-05-09T14:03:44.258Z,100
2024-05-09T14:04:51.276Z,100
2024-05-09T14:05:58.451Z,100
2024-05-09T14:07:05.375Z,100
2024-05-09T14:08:12.513Z,100
2024-05-09T14:09:19.099Z,100
2024-05-09T14:10:30.953Z,100
2024-05-09T14:11:33.458Z,100
2024-05-09T14:12:40.474Z,100
2024-05-09T14:13:47.506Z,100
2024-05-09T14:14:54.104Z,100
2024-05-09T14:16:01.332Z,100
2024-05-09T14:18:15.480Z,100
2024-05-09T14:19:22.565Z,100
2024-05-09T14:20:31.709Z,100
2024-05-09T14:21:36.266Z,100
2024-05-09T14:22:43.303Z,100
2024-05-09T14:23:50.379Z,100
2024-05-09T14:24:57.660Z,100
2024-05-09T14:26:04.083Z,100
2024-05-09T14:27:11.200Z,100
2024-05-09T14:28:18.451Z,100
2024-05-09T14:29:25.399Z,99
2024-05-09T14:30:37.213Z,99
2024-05-09T14:31:39.804Z,100
2024-05-09T14:32:46.383Z,99
2024-05-09T14:33:53.623Z,99
2024-05-09T14:35:00.606Z,99
2024-05-09T14:36:07.529Z,99
2024-05-09T14:37:14.294Z,99
2024-05-09T14:38:21.249Z,99
2024-05-09T14:39:28.337Z,99
2024-05-09T14:40:41.128Z,100
2024-05-09T14:41:42.010Z,99
2024-05-09T14:42:49.178Z,99
2024-05-09T14:43:56.196Z,99
2024-05-09T14:45:03.393Z,99
2024-05-09T14:46:10.536Z,99
2024-05-09T14:47:17.080Z,99
2024-05-09T14:48:24.177Z,99
2024-05-09T14:49:31.319Z,99
2024-05-09T14:50:40.202Z,99
2024-05-09T14:51:45.500Z,99
2024-05-09T14:53:59.703Z,99
2024-05-09T14:55:07.529Z,99
2024-05-09T14:56:13.324Z,99
2024-05-09T14:57:20.466Z,99
2024-05-09T14:58:27.122Z,99
2024-05-09T14:59:34.118Z,99
2024-05-09T15:00:44.831Z,99
2024-05-09T15:01:48.556Z,99
2024-05-09T15:02:55.522Z,99
2024-05-09T15:04:02.493Z,99
2024-05-09T15:05:09.305Z,99
2024-05-09T15:06:16.270Z,99
2024-05-09T15:07:23.408Z,99
2024-05-09T15:08:30.504Z,99
2024-05-09T15:09:37.610Z,99
2024-05-09T15:10:44.435Z,99
2024-05-09T15:11:51.356Z,99
2024-05-09T15:12:58.531Z,99
2024-05-09T15:14:05.462Z,99
2024-05-09T15:15:12.090Z,99
2024-05-09T15:16:19.162Z,99
2024-05-09T15:17:26.290Z,99
2024-05-09T15:18:33.716Z,99
2024-05-09T15:19:40.629Z,99
2024-05-09T15:20:47.625Z,99
2024-05-09T15:21:54.190Z,99
2024-05-09T15:23:01.250Z,99
2024-05-09T15:24:08.390Z,99
2024-05-09T15:25:15.643Z,99
2024-05-09T15:26:22.117Z,99
2024-05-09T15:27:29.227Z,99
2024-05-09T15:28:36.231Z,99
2024-05-09T15:29:43.411Z,99
2024-05-09T15:30:50.631Z,99
2024-05-09T15:31:57.046Z,99
2024-05-09T15:33:04.839Z,99
2024-05-09T15:34:11.326Z,99
2024-05-09T15:35:18.379Z,99
2024-05-09T15:36:25.471Z,99
2024-05-09T15:37:32.164Z,99
2024-05-09T15:38:39.138Z,99
2024-05-09T15:39:46.317Z,99
2024-05-09T15:40:53.476Z,99
2024-05-09T15:42:00.717Z,99
2024-05-09T15:43:07.633Z,99
2024-05-09T15:44:14.299Z,99
2024-05-09T15:45:21.295Z,99
2024-05-09T15:46:28.516Z,99
2024-05-09T15:47:35.541Z,99
2024-05-09T15:48:44.623Z,99
2024-05-09T15:49:49.391Z,99
2024-05-09T15:50:56.366Z,99
2024-05-09T15:52:03.421Z,99
2024-05-09T15:53:10.970Z,99
2024-05-09T15:54:17.063Z,99
2024-05-09T15:55:24.214Z,99
2024-05-09T15:57:38.468Z,99
2024-05-09T15:58:45.511Z,99
2024-05-09T15:59:52.207Z,99
2024-05-09T16:00:59.385Z,99
2024-05-09T16:02:06.484Z,99
2024-05-09T16:03:14.716Z,99
2024-05-09T16:04:20.847Z,99
2024-05-09T16:05:27.300Z,99